SBJU/JDO METAR and TAF weather

Enter ICAO airport designator
Station Type Date Time Source
SBJU METAR 2019/12/09 22:00 UTC NOAA

SBJU 092200Z 08003KT 9999 FEW020 FEW022TCU SCT070 30/17 Q1013


Station Type Date Time Source
SBJU Decoded METAR 2019/12/09 22:00 UTC NOAA

Station name not available
Dec 09, 2019 - 05:00 PM EST / 2019.12.09 2200 UTC
Wind: from the E (080 degrees) at 3 MPH (3 KT):0
Visibility: greater than 7 mile(s):0
Sky conditions: partly cloudy
Weather: Towering cumulus clouds observed
Temperature: 86 F (30 C)
Dew Point: 62 F (17 C)
Relative Humidity: 45%
Pressure (altimeter): 29.91 in. Hg (1013 hPa)
ob: SBJU 092200Z 08003KT 9999 FEW020 FEW022TCU SCT070 30/17 Q1013
cycle: 22

Station Type Date Time Source
SBJU TAF 2011/11/01 00:05 UTC NOAA

TAF SBJU 012200Z 0200/0212 00000KT 9999 SCT020 TX28/0200Z TN24/0207Z
BECMG 0210/0212 06005KT
RMK PCE

Example: see airport list